sensor_id;sensor_type;location;lat;lon;timestamp;P1;durP1;ratioP1;P2;durP2;ratioP2
30048;SDS011;16879;50.852;15.602;2023-06-14T00:01:07;6.65;;;5.15;;
30048;SDS011;16879;50.852;15.602;2023-06-14T00:03:34;7.60;;;5.32;;
30048;SDS011;16879;50.852;15.602;2023-06-14T00:06:00;5.85;;;5.28;;
30048;SDS011;16879;50.852;15.602;2023-06-14T00:08:27;9.82;;;5.70;;
30048;SDS011;16879;50.852;15.602;2023-06-14T00:10:54;6.60;;;6.00;;
30048;SDS011;16879;50.852;15.602;2023-06-14T00:13:20;6.63;;;4.70;;
30048;SDS011;16879;50.852;15.602;2023-06-14T00:15:46;5.50;;;4.97;;
30048;SDS011;16879;50.852;15.602;2023-06-14T00:18:12;6.20;;;5.28;;
30048;SDS011;16879;50.852;15.602;2023-06-14T00:20:40;6.25;;;5.65;;
30048;SDS011;16879;50.852;15.602;2023-06-14T00:23:07;6.78;;;5.72;;
30048;SDS011;16879;50.852;15.602;2023-06-14T00:25:34;6.38;;;5.25;;
30048;SDS011;16879;50.852;15.602;2023-06-14T00:28:00;6.68;;;6.07;;
30048;SDS011;16879;50.852;15.602;2023-06-14T00:30:26;10.32;;;6.00;;
30048;SDS011;16879;50.852;15.602;2023-06-14T00:32:55;6.03;;;5.43;;
30048;SDS011;16879;50.852;15.602;2023-06-14T00:35:22;6.88;;;5.35;;
30048;SDS011;16879;50.852;15.602;2023-06-14T00:37:48;5.95;;;4.55;;
30048;SDS011;16879;50.852;15.602;2023-06-14T00:40:15;9.02;;;5.78;;
30048;SDS011;16879;50.852;15.602;2023-06-14T00:42:41;9.57;;;5.78;;
30048;SDS011;16879;50.852;15.602;2023-06-14T00:45:08;6.07;;;5.38;;
30048;SDS011;16879;50.852;15.602;2023-06-14T00:47:35;8.32;;;6.03;;
30048;SDS011;16879;50.852;15.602;2023-06-14T00:50:03;6.93;;;5.85;;
30048;SDS011;16879;50.852;15.602;2023-06-14T00:52:32;8.70;;;5.45;;
30048;SDS011;16879;50.852;15.602;2023-06-14T00:54:58;9.60;;;6.18;;
30048;SDS011;16879;50.852;15.602;2023-06-14T00:57:24;5.65;;;4.82;;
30048;SDS011;16879;50.852;15.602;2023-06-14T00:59:50;5.30;;;4.80;;
30048;SDS011;16879;50.852;15.602;2023-06-14T01:02:18;7.22;;;4.88;;
30048;SDS011;16879;50.852;15.602;2023-06-14T01:04:45;8.75;;;6.50;;
30048;SDS011;16879;50.852;15.602;2023-06-14T01:12:35;5.43;;;4.95;;
30048;SDS011;16879;50.852;15.602;2023-06-14T01:15:03;6.05;;;5.35;;
30048;SDS011;16879;50.852;15.602;2023-06-14T01:17:29;8.27;;;5.82;;
30048;SDS011;16879;50.852;15.602;2023-06-14T01:20:05;6.55;;;5.95;;
30048;SDS011;16879;50.852;15.602;2023-06-14T01:22:35;5.22;;;4.72;;
30048;SDS011;16879;50.852;15.602;2023-06-14T01:25:06;6.70;;;5.18;;
30048;SDS011;16879;50.852;15.602;2023-06-14T01:27:35;13.07;;;8.88;;
30048;SDS011;16879;50.852;15.602;2023-06-14T01:30:02;8.77;;;6.65;;
30048;SDS011;16879;50.852;15.602;2023-06-14T01:32:30;11.20;;;6.90;;
30048;SDS011;16879;50.852;15.602;2023-06-14T01:34:56;7.03;;;6.03;;
30048;SDS011;16879;50.852;15.602;2023-06-14T01:37:23;7.70;;;6.18;;
30048;SDS011;16879;50.852;15.602;2023-06-14T01:39:49;11.40;;;6.50;;
30048;SDS011;16879;50.852;15.602;2023-06-14T01:42:16;8.90;;;7.20;;
30048;SDS011;16879;50.852;15.602;2023-06-14T01:44:42;8.10;;;7.30;;
30048;SDS011;16879;50.852;15.602;2023-06-14T01:47:10;11.20;;;6.60;;
30048;SDS011;16879;50.852;15.602;2023-06-14T01:49:37;7.15;;;6.45;;
30048;SDS011;16879;50.852;15.602;2023-06-14T01:52:04;6.07;;;5.53;;
30048;SDS011;16879;50.852;15.602;2023-06-14T01:54:31;6.90;;;6.28;;
30048;SDS011;16879;50.852;15.602;2023-06-14T01:56:58;6.30;;;5.78;;
30048;SDS011;16879;50.852;15.602;2023-06-14T01:59:24;6.40;;;5.80;;
30048;SDS011;16879;50.852;15.602;2023-06-14T02:01:51;8.20;;;7.45;;
30048;SDS011;16879;50.852;15.602;2023-06-14T07:00:27;8.02;;;7.22;;
30048;SDS011;16879;50.852;15.602;2023-06-14T07:36:30;5.45;;;4.95;;
30048;SDS011;16879;50.852;15.602;2023-06-14T07:38:57;6.53;;;5.20;;
30048;SDS011;16879;50.852;15.602;2023-06-14T07:41:23;5.10;;;4.70;;
30048;SDS011;16879;50.852;15.602;2023-06-14T07:43:50;7.18;;;6.47;;
30048;SDS011;16879;50.852;15.602;2023-06-14T07:46:16;8.90;;;5.85;;
30048;SDS011;16879;50.852;15.602;2023-06-14T07:48:47;5.93;;;5.32;;
30048;SDS011;16879;50.852;15.602;2023-06-14T07:51:13;4.95;;;4.45;;
30048;SDS011;16879;50.852;15.602;2023-06-14T07:53:39;6.20;;;5.60;;
30048;SDS011;16879;50.852;15.602;2023-06-14T07:56:06;9.00;;;5.78;;
30048;SDS011;16879;50.852;15.602;2023-06-14T07:58:32;5.07;;;4.53;;
30048;SDS011;16879;50.852;15.602;2023-06-14T08:00:59;6.95;;;4.72;;
30048;SDS011;16879;50.852;15.602;2023-06-14T08:03:27;5.60;;;4.68;;
30048;SDS011;16879;50.852;15.602;2023-06-14T08:05:53;5.78;;;4.65;;
30048;SDS011;16879;50.852;15.602;2023-06-14T08:08:19;5.65;;;4.80;;
30048;SDS011;16879;50.852;15.602;2023-06-14T08:10:45;6.68;;;5.45;;
30048;SDS011;16879;50.852;15.602;2023-06-14T08:13:12;5.38;;;4.82;;
30048;SDS011;16879;50.852;15.602;2023-06-14T08:15:41;7.20;;;4.35;;
30048;SDS011;16879;50.852;15.602;2023-06-14T08:18:08;6.50;;;5.00;;
30048;SDS011;16879;50.852;15.602;2023-06-14T08:20:34;7.68;;;4.80;;
30048;SDS011;16879;50.852;15.602;2023-06-14T08:23:04;10.50;;;6.93;;
30048;SDS011;16879;50.852;15.602;2023-06-14T08:25:30;9.95;;;6.57;;
30048;SDS011;16879;50.852;15.602;2023-06-14T08:27:56;8.27;;;7.40;;
30048;SDS011;16879;50.852;15.602;2023-06-14T08:30:22;9.00;;;7.07;;
30048;SDS011;16879;50.852;15.602;2023-06-14T08:32:50;7.25;;;6.53;;
30048;SDS011;16879;50.852;15.602;2023-06-14T08:35:16;10.30;;;8.10;;
30048;SDS011;16879;50.852;15.602;2023-06-14T08:37:43;8.60;;;7.40;;
30048;SDS011;16879;50.852;15.602;2023-06-14T08:40:20;11.65;;;9.23;;
30048;SDS011;16879;50.852;15.602;2023-06-14T08:42:51;9.32;;;8.32;;
30048;SDS011;16879;50.852;15.602;2023-06-14T08:45:26;9.57;;;8.45;;
30048;SDS011;16879;50.852;15.602;2023-06-14T08:47:53;9.82;;;8.65;;
30048;SDS011;16879;50.852;15.602;2023-06-14T08:50:22;10.90;;;7.85;;
30048;SDS011;16879;50.852;15.602;2023-06-14T08:52:58;10.88;;;8.05;;
30048;SDS011;16879;50.852;15.602;2023-06-14T08:55:32;9.38;;;7.80;;
30048;SDS011;16879;50.852;15.602;2023-06-14T08:57:58;11.90;;;9.45;;
30048;SDS011;16879;50.852;15.602;2023-06-14T09:00:25;9.65;;;8.65;;
30048;SDS011;16879;50.852;15.602;2023-06-14T09:02:52;11.05;;;9.57;;
30048;SDS011;16879;50.852;15.602;2023-06-14T09:05:44;9.98;;;8.85;;
30048;SDS011;16879;50.852;15.602;2023-06-14T09:08:11;9.55;;;8.55;;
30048;SDS011;16879;50.852;15.602;2023-06-14T09:10:37;10.10;;;9.05;;
30048;SDS011;16879;50.852;15.602;2023-06-14T09:13:04;11.18;;;8.77;;
30048;SDS011;16879;50.852;15.602;2023-06-14T09:15:30;11.52;;;10.05;;
30048;SDS011;16879;50.852;15.602;2023-06-14T09:17:59;10.85;;;9.68;;
30048;SDS011;16879;50.852;15.602;2023-06-14T09:20:26;10.30;;;9.20;;
30048;SDS011;16879;50.852;15.602;2023-06-14T09:22:55;10.27;;;8.57;;
30048;SDS011;16879;50.852;15.602;2023-06-14T09:25:21;10.07;;;9.05;;
30048;SDS011;16879;50.852;15.602;2023-06-14T09:27:51;11.82;;;9.90;;
30048;SDS011;16879;50.852;15.602;2023-06-14T09:30:21;10.90;;;9.77;;
30048;SDS011;16879;50.852;15.602;2023-06-14T09:32:47;12.35;;;10.38;;
30048;SDS011;16879;50.852;15.602;2023-06-14T09:35:14;11.23;;;10.05;;
30048;SDS011;16879;50.852;15.602;2023-06-14T09:37:43;10.88;;;9.77;;
30048;SDS011;16879;50.852;15.602;2023-06-14T09:40:10;11.23;;;10.00;;
30048;SDS011;16879;50.852;15.602;2023-06-14T09:42:36;10.45;;;9.38;;
30048;SDS011;16879;50.852;15.602;2023-06-14T09:45:03;10.65;;;9.65;;
30048;SDS011;16879;50.852;15.602;2023-06-14T09:47:30;11.02;;;9.73;;
30048;SDS011;16879;50.852;15.602;2023-06-14T09:49:56;9.52;;;8.52;;
30048;SDS011;16879;50.852;15.602;2023-06-14T09:52:24;10.35;;;9.25;;
30048;SDS011;16879;50.852;15.602;2023-06-14T09:54:51;10.13;;;8.82;;
30048;SDS011;16879;50.852;15.602;2023-06-14T09:57:22;11.25;;;10.05;;
30048;SDS011;16879;50.852;15.602;2023-06-14T09:59:48;9.48;;;8.57;;
30048;SDS011;16879;50.852;15.602;2023-06-14T10:02:21;11.80;;;9.40;;
30048;SDS011;16879;50.852;15.602;2023-06-14T10:05:11;11.38;;;10.02;;
30048;SDS011;16879;50.852;15.602;2023-06-14T10:10:07;11.23;;;9.00;;
30048;SDS011;16879;50.852;15.602;2023-06-14T10:12:33;11.07;;;9.98;;
30048;SDS011;16879;50.852;15.602;2023-06-14T10:14:59;11.93;;;10.63;;
30048;SDS011;16879;50.852;15.602;2023-06-14T10:17:34;10.90;;;9.80;;
30048;SDS011;16879;50.852;15.602;2023-06-14T10:20:14;12.38;;;11.13;;
30048;SDS011;16879;50.852;15.602;2023-06-14T10:22:45;12.57;;;10.27;;
30048;SDS011;16879;50.852;15.602;2023-06-14T10:25:28;10.82;;;9.70;;
30048;SDS011;16879;50.852;15.602;2023-06-14T10:33:29;12.40;;;10.48;;
30048;SDS011;16879;50.852;15.602;2023-06-14T10:39:04;9.88;;;8.88;;
30048;SDS011;16879;50.852;15.602;2023-06-14T10:41:34;9.52;;;8.57;;
30048;SDS011;16879;50.852;15.602;2023-06-14T10:46:48;13.05;;;10.68;;
30048;SDS011;16879;50.852;15.602;2023-06-14T10:49:18;12.38;;;8.20;;
30048;SDS011;16879;50.852;15.602;2023-06-14T10:51:44;11.07;;;9.75;;
30048;SDS011;16879;50.852;15.602;2023-06-14T10:54:15;10.73;;;9.63;;
30048;SDS011;16879;50.852;15.602;2023-06-14T10:56:51;11.52;;;10.32;;
30048;SDS011;16879;50.852;15.602;2023-06-14T10:59:19;10.77;;;9.02;;
30048;SDS011;16879;50.852;15.602;2023-06-14T11:01:58;10.38;;;9.27;;
30048;SDS011;16879;50.852;15.602;2023-06-14T11:04:50;13.17;;;10.50;;
30048;SDS011;16879;50.852;15.602;2023-06-14T11:12:19;11.00;;;9.88;;
30048;SDS011;16879;50.852;15.602;2023-06-14T11:14:47;12.43;;;10.23;;
30048;SDS011;16879;50.852;15.602;2023-06-14T11:17:19;9.73;;;8.73;;
30048;SDS011;16879;50.852;15.602;2023-06-14T11:19:46;10.75;;;9.65;;
30048;SDS011;16879;50.852;15.602;2023-06-14T11:22:12;11.20;;;10.10;;
30048;SDS011;16879;50.852;15.602;2023-06-14T11:24:43;11.90;;;10.23;;
30048;SDS011;16879;50.852;15.602;2023-06-14T11:27:10;9.75;;;8.82;;
30048;SDS011;16879;50.852;15.602;2023-06-14T11:29:38;10.20;;;9.20;;
30048;SDS011;16879;50.852;15.602;2023-06-14T11:32:08;10.52;;;9.43;;
30048;SDS011;16879;50.852;15.602;2023-06-14T11:34:41;11.23;;;9.98;;
30048;SDS011;16879;50.852;15.602;2023-06-14T11:37:08;10.07;;;9.07;;
30048;SDS011;16879;50.852;15.602;2023-06-14T11:39:34;11.55;;;10.13;;
30048;SDS011;16879;50.852;15.602;2023-06-14T11:42:03;10.13;;;9.07;;
30048;SDS011;16879;50.852;15.602;2023-06-14T11:44:31;10.10;;;9.10;;
30048;SDS011;16879;50.852;15.602;2023-06-14T11:47:03;9.50;;;8.60;;
30048;SDS011;16879;50.852;15.602;2023-06-14T11:49:29;11.23;;;10.05;;
30048;SDS011;16879;50.852;15.602;2023-06-14T11:51:55;10.13;;;8.50;;
30048;SDS011;16879;50.852;15.602;2023-06-14T11:54:21;10.80;;;9.57;;
30048;SDS011;16879;50.852;15.602;2023-06-14T11:56:48;10.35;;;9.35;;
30048;SDS011;16879;50.852;15.602;2023-06-14T11:59:14;10.52;;;9.48;;
30048;SDS011;16879;50.852;15.602;2023-06-14T12:01:42;10.00;;;9.02;;
30048;SDS011;16879;50.852;15.602;2023-06-14T12:04:08;9.77;;;8.88;;
30048;SDS011;16879;50.852;15.602;2023-06-14T12:06:35;9.57;;;8.68;;
30048;SDS011;16879;50.852;15.602;2023-06-14T12:09:04;10.43;;;9.32;;
30048;SDS011;16879;50.852;15.602;2023-06-14T12:11:38;10.05;;;9.07;;
30048;SDS011;16879;50.852;15.602;2023-06-14T12:14:07;11.15;;;9.77;;
30048;SDS011;16879;50.852;15.602;2023-06-14T12:16:34;9.80;;;8.82;;
30048;SDS011;16879;50.852;15.602;2023-06-14T12:21:43;9.98;;;9.07;;
30048;SDS011;16879;50.852;15.602;2023-06-14T12:24:12;10.55;;;9.55;;
30048;SDS011;16879;50.852;15.602;2023-06-14T12:26:39;10.73;;;9.73;;
30048;SDS011;16879;50.852;15.602;2023-06-14T12:29:09;10.02;;;9.13;;
30048;SDS011;16879;50.852;15.602;2023-06-14T12:31:37;9.10;;;8.20;;
30048;SDS011;16879;50.852;15.602;2023-06-14T12:34:04;9.98;;;8.98;;
30048;SDS011;16879;50.852;15.602;2023-06-14T12:36:30;10.10;;;9.10;;
30048;SDS011;16879;50.852;15.602;2023-06-14T12:38:57;9.32;;;8.43;;
30048;SDS011;16879;50.852;15.602;2023-06-14T12:41:24;9.20;;;8.20;;
30048;SDS011;16879;50.852;15.602;2023-06-14T12:43:52;9.85;;;8.88;;
30048;SDS011;16879;50.852;15.602;2023-06-14T12:46:18;8.70;;;7.90;;
30048;SDS011;16879;50.852;15.602;2023-06-14T12:48:44;8.57;;;7.75;;
30048;SDS011;16879;50.852;15.602;2023-06-14T12:51:10;8.95;;;8.15;;
30048;SDS011;16879;50.852;15.602;2023-06-14T12:53:37;7.63;;;7.03;;
30048;SDS011;16879;50.852;15.602;2023-06-14T12:56:03;9.05;;;8.25;;
30048;SDS011;16879;50.852;15.602;2023-06-14T12:58:29;8.05;;;7.35;;
30048;SDS011;16879;50.852;15.602;2023-06-14T13:00:56;8.90;;;8.10;;
30048;SDS011;16879;50.852;15.602;2023-06-14T13:03:22;9.40;;;8.57;;
30048;SDS011;16879;50.852;15.602;2023-06-14T13:05:49;9.77;;;8.82;;
30048;SDS011;16879;50.852;15.602;2023-06-14T13:08:15;10.63;;;8.55;;
30048;SDS011;16879;50.852;15.602;2023-06-14T13:10:44;8.18;;;7.47;;
30048;SDS011;16879;50.852;15.602;2023-06-14T13:13:18;8.95;;;8.10;;
30048;SDS011;16879;50.852;15.602;2023-06-14T13:16:21;8.05;;;7.25;;
30048;SDS011;16879;50.852;15.602;2023-06-14T13:18:51;8.85;;;7.95;;
30048;SDS011;16879;50.852;15.602;2023-06-14T13:21:48;8.48;;;7.78;;
30048;SDS011;16879;50.852;15.602;2023-06-14T13:25:04;10.82;;;8.02;;
30048;SDS011;16879;50.852;15.602;2023-06-14T13:27:53;8.25;;;7.53;;
30048;SDS011;16879;50.852;15.602;2023-06-14T13:31:15;8.40;;;7.55;;
30048;SDS011;16879;50.852;15.602;2023-06-14T13:34:21;9.70;;;7.88;;
30048;SDS011;16879;50.852;15.602;2023-06-14T13:40:35;8.75;;;7.38;;
30048;SDS011;16879;50.852;15.602;2023-06-14T13:43:22;8.00;;;7.20;;
30048;SDS011;16879;50.852;15.602;2023-06-14T13:46:25;8.13;;;7.32;;
30048;SDS011;16879;50.852;15.602;2023-06-14T13:49:00;9.18;;;8.27;;
30048;SDS011;16879;50.852;15.602;2023-06-14T13:51:28;7.95;;;7.15;;
30048;SDS011;16879;50.852;15.602;2023-06-14T13:54:13;8.00;;;7.30;;
30048;SDS011;16879;50.852;15.602;2023-06-14T13:57:18;8.82;;;8.02;;
30048;SDS011;16879;50.852;15.602;2023-06-14T14:00:06;9.02;;;7.78;;
30048;SDS011;16879;50.852;15.602;2023-06-14T14:03:01;9.35;;;8.43;;
30048;SDS011;16879;50.852;15.602;2023-06-14T14:05:49;8.75;;;7.88;;
30048;SDS011;16879;50.852;15.602;2023-06-14T14:08:49;9.55;;;7.70;;
30048;SDS011;16879;50.852;15.602;2023-06-14T14:11:47;7.90;;;7.18;;
30048;SDS011;16879;50.852;15.602;2023-06-14T14:22:52;10.27;;;9.20;;
30048;SDS011;16879;50.852;15.602;2023-06-14T14:25:20;13.02;;;9.20;;
30048;SDS011;16879;50.852;15.602;2023-06-14T14:27:47;11.32;;;8.05;;
30048;SDS011;16879;50.852;15.602;2023-06-14T14:30:14;9.13;;;8.23;;
30048;SDS011;16879;50.852;15.602;2023-06-14T14:32:41;9.30;;;8.40;;
30048;SDS011;16879;50.852;15.602;2023-06-14T14:35:09;9.20;;;7.70;;
30048;SDS011;16879;50.852;15.602;2023-06-14T14:37:40;8.93;;;8.13;;
30048;SDS011;16879;50.852;15.602;2023-06-14T14:40:34;8.05;;;7.30;;
30048;SDS011;16879;50.852;15.602;2023-06-14T14:43:00;6.75;;;6.05;;
30048;SDS011;16879;50.852;15.602;2023-06-14T14:45:26;7.15;;;5.88;;
30048;SDS011;16879;50.852;15.602;2023-06-14T14:47:52;5.75;;;5.15;;
30048;SDS011;16879;50.852;15.602;2023-06-14T14:50:29;5.50;;;5.00;;
30048;SDS011;16879;50.852;15.602;2023-06-14T14:52:59;5.43;;;4.93;;
30048;SDS011;16879;50.852;15.602;2023-06-14T14:55:25;5.25;;;4.75;;
30048;SDS011;16879;50.852;15.602;2023-06-14T14:57:52;5.28;;;4.80;;
30048;SDS011;16879;50.852;15.602;2023-06-14T15:00:20;5.78;;;5.25;;
30048;SDS011;16879;50.852;15.602;2023-06-14T15:02:46;7.60;;;5.57;;
30048;SDS011;16879;50.852;15.602;2023-06-14T15:05:12;6.55;;;5.15;;
30048;SDS011;16879;50.852;15.602;2023-06-14T15:07:38;7.72;;;5.18;;
30048;SDS011;16879;50.852;15.602;2023-06-14T15:10:06;7.25;;;5.60;;
30048;SDS011;16879;50.852;15.602;2023-06-14T15:12:32;8.13;;;5.93;;
30048;SDS011;16879;50.852;15.602;2023-06-14T15:14:58;5.45;;;4.93;;
30048;SDS011;16879;50.852;15.602;2023-06-14T15:17:25;4.95;;;4.55;;
30048;SDS011;16879;50.852;15.602;2023-06-14T15:19:52;5.55;;;4.57;;
30048;SDS011;16879;50.852;15.602;2023-06-14T15:22:18;7.93;;;4.30;;
30048;SDS011;16879;50.852;15.602;2023-06-14T15:24:44;5.32;;;4.85;;
30048;SDS011;16879;50.852;15.602;2023-06-14T15:27:11;6.35;;;5.75;;
30048;SDS011;16879;50.852;15.602;2023-06-14T15:29:38;5.93;;;5.32;;
30048;SDS011;16879;50.852;15.602;2023-06-14T15:32:05;5.90;;;5.40;;
30048;SDS011;16879;50.852;15.602;2023-06-14T15:34:33;6.25;;;4.72;;
30048;SDS011;16879;50.852;15.602;2023-06-14T15:36:59;5.55;;;5.05;;
30048;SDS011;16879;50.852;15.602;2023-06-14T15:39:25;5.10;;;4.68;;
30048;SDS011;16879;50.852;15.602;2023-06-14T15:41:53;5.95;;;5.20;;
30048;SDS011;16879;50.852;15.602;2023-06-14T15:44:20;6.60;;;5.90;;
30048;SDS011;16879;50.852;15.602;2023-06-14T15:46:47;6.10;;;5.40;;
30048;SDS011;16879;50.852;15.602;2023-06-14T15:49:13;7.03;;;5.47;;
30048;SDS011;16879;50.852;15.602;2023-06-14T15:51:39;6.30;;;5.22;;
30048;SDS011;16879;50.852;15.602;2023-06-14T15:54:05;6.63;;;5.63;;
30048;SDS011;16879;50.852;15.602;2023-06-14T15:56:32;6.88;;;5.80;;
30048;SDS011;16879;50.852;15.602;2023-06-14T15:58:58;7.53;;;6.72;;
30048;SDS011;16879;50.852;15.602;2023-06-14T16:01:25;6.88;;;6.03;;
30048;SDS011;16879;50.852;15.602;2023-06-14T16:03:52;6.85;;;6.20;;
30048;SDS011;16879;50.852;15.602;2023-06-14T16:06:20;7.57;;;6.80;;
30048;SDS011;16879;50.852;15.602;2023-06-14T16:08:46;6.00;;;5.40;;
30048;SDS011;16879;50.852;15.602;2023-06-14T16:11:12;6.00;;;5.40;;
30048;SDS011;16879;50.852;15.602;2023-06-14T16:13:40;6.88;;;6.28;;
30048;SDS011;16879;50.852;15.602;2023-06-14T16:16:07;6.63;;;6.03;;
30048;SDS011;16879;50.852;15.602;2023-06-14T16:18:34;6.22;;;5.63;;
30048;SDS011;16879;50.852;15.602;2023-06-14T16:21:00;7.07;;;6.07;;
30048;SDS011;16879;50.852;15.602;2023-06-14T16:23:26;6.70;;;6.00;;
30048;SDS011;16879;50.852;15.602;2023-06-14T16:25:53;6.80;;;6.20;;
30048;SDS011;16879;50.852;15.602;2023-06-14T16:28:19;7.47;;;6.45;;
30048;SDS011;16879;50.852;15.602;2023-06-14T16:30:45;7.55;;;5.65;;
30048;SDS011;16879;50.852;15.602;2023-06-14T16:33:11;6.82;;;6.13;;
30048;SDS011;16879;50.852;15.602;2023-06-14T16:35:37;5.70;;;5.13;;
30048;SDS011;16879;50.852;15.602;2023-06-14T16:38:04;6.10;;;5.50;;
30048;SDS011;16879;50.852;15.602;2023-06-14T16:40:32;6.53;;;5.50;;
30048;SDS011;16879;50.852;15.602;2023-06-14T16:43:02;8.48;;;6.43;;
30048;SDS011;16879;50.852;15.602;2023-06-14T16:45:33;6.00;;;5.50;;
30048;SDS011;16879;50.852;15.602;2023-06-14T16:48:17;6.70;;;6.10;;
30048;SDS011;16879;50.852;15.602;2023-06-14T16:54:10;5.80;;;5.25;;
30048;SDS011;16879;50.852;15.602;2023-06-14T16:56:54;6.60;;;5.70;;
30048;SDS011;16879;50.852;15.602;2023-06-14T16:59:20;6.85;;;6.15;;
30048;SDS011;16879;50.852;15.602;2023-06-14T17:01:50;6.20;;;5.63;;
30048;SDS011;16879;50.852;15.602;2023-06-14T17:04:40;5.70;;;5.13;;
30048;SDS011;16879;50.852;15.602;2023-06-14T17:07:07;5.65;;;5.15;;
30048;SDS011;16879;50.852;15.602;2023-06-14T17:09:48;5.45;;;4.95;;
30048;SDS011;16879;50.852;15.602;2023-06-14T17:12:15;6.57;;;5.97;;
30048;SDS011;16879;50.852;15.602;2023-06-14T17:14:43;7.72;;;5.90;;
30048;SDS011;16879;50.852;15.602;2023-06-14T17:17:11;6.03;;;5.43;;
30048;SDS011;16879;50.852;15.602;2023-06-14T17:19:38;6.68;;;5.50;;
30048;SDS011;16879;50.852;15.602;2023-06-14T17:22:27;5.65;;;5.15;;
30048;SDS011;16879;50.852;15.602;2023-06-14T17:27:42;5.32;;;4.82;;
30048;SDS011;16879;50.852;15.602;2023-06-14T17:30:34;5.43;;;4.93;;
30048;SDS011;16879;50.852;15.602;2023-06-14T17:37:05;6.30;;;4.80;;
30048;SDS011;16879;50.852;15.602;2023-06-14T17:51:43;7.00;;;5.10;;
30048;SDS011;16879;50.852;15.602;2023-06-14T17:54:37;6.03;;;4.65;;
30048;SDS011;16879;50.852;15.602;2023-06-14T17:57:15;5.65;;;5.07;;
30048;SDS011;16879;50.852;15.602;2023-06-14T17:59:47;5.68;;;5.18;;
30048;SDS011;16879;50.852;15.602;2023-06-14T18:02:29;4.47;;;4.15;;
30048;SDS011;16879;50.852;15.602;2023-06-14T18:05:01;4.93;;;4.45;;
30048;SDS011;16879;50.852;15.602;2023-06-14T18:08:10;5.72;;;5.15;;
30048;SDS011;16879;50.852;15.602;2023-06-14T18:14:22;4.95;;;4.53;;
30048;SDS011;16879;50.852;15.602;2023-06-14T18:16:49;4.95;;;4.55;;
30048;SDS011;16879;50.852;15.602;2023-06-14T18:19:48;4.82;;;4.32;;
30048;SDS011;16879;50.852;15.602;2023-06-14T18:22:53;5.45;;;4.85;;
30048;SDS011;16879;50.852;15.602;2023-06-14T18:26:07;6.45;;;5.25;;
30048;SDS011;16879;50.852;15.602;2023-06-14T18:28:33;4.95;;;4.40;;
30048;SDS011;16879;50.852;15.602;2023-06-14T18:39:09;7.03;;;6.43;;
30048;SDS011;16879;50.852;15.602;2023-06-14T18:44:04;9.23;;;7.43;;
30048;SDS011;16879;50.852;15.602;2023-06-14T18:46:34;8.85;;;7.82;;
30048;SDS011;16879;50.852;15.602;2023-06-14T18:49:05;10.73;;;7.82;;
30048;SDS011;16879;50.852;15.602;2023-06-14T18:51:45;8.57;;;7.28;;
30048;SDS011;16879;50.852;15.602;2023-06-14T18:54:12;12.10;;;7.20;;
30048;SDS011;16879;50.852;15.602;2023-06-14T18:56:38;8.57;;;7.18;;
30048;SDS011;16879;50.852;15.602;2023-06-14T18:59:04;9.43;;;7.63;;
30048;SDS011;16879;50.852;15.602;2023-06-14T19:01:49;8.55;;;7.43;;
30048;SDS011;16879;50.852;15.602;2023-06-14T19:04:15;9.85;;;7.88;;
30048;SDS011;16879;50.852;15.602;2023-06-14T19:06:41;10.27;;;7.78;;
30048;SDS011;16879;50.852;15.602;2023-06-14T19:09:08;11.57;;;10.10;;
30048;SDS011;16879;50.852;15.602;2023-06-14T19:11:34;10.52;;;8.45;;
30048;SDS011;16879;50.852;15.602;2023-06-14T19:14:00;11.18;;;9.30;;
30048;SDS011;16879;50.852;15.602;2023-06-14T19:16:26;10.13;;;8.05;;
30048;SDS011;16879;50.852;15.602;2023-06-14T19:18:52;9.82;;;8.18;;
30048;SDS011;16879;50.852;15.602;2023-06-14T19:21:18;13.57;;;8.32;;
30048;SDS011;16879;50.852;15.602;2023-06-14T19:23:47;10.52;;;8.52;;
30048;SDS011;16879;50.852;15.602;2023-06-14T19:26:15;8.90;;;7.85;;
30048;SDS011;16879;50.852;15.602;2023-06-14T19:29:02;13.10;;;8.90;;
30048;SDS011;16879;50.852;15.602;2023-06-14T19:31:31;10.10;;;7.93;;
30048;SDS011;16879;50.852;15.602;2023-06-14T19:34:06;12.75;;;10.13;;
30048;SDS011;16879;50.852;15.602;2023-06-14T19:37:19;10.98;;;9.40;;
30048;SDS011;16879;50.852;15.602;2023-06-14T19:39:50;12.57;;;8.50;;
30048;SDS011;16879;50.852;15.602;2023-06-14T19:42:51;10.20;;;8.10;;
30048;SDS011;16879;50.852;15.602;2023-06-14T19:46:13;9.88;;;7.75;;
30048;SDS011;16879;50.852;15.602;2023-06-14T19:48:41;9.55;;;8.32;;
30048;SDS011;16879;50.852;15.602;2023-06-14T19:51:08;10.65;;;8.20;;
30048;SDS011;16879;50.852;15.602;2023-06-14T19:53:34;11.88;;;8.00;;
30048;SDS011;16879;50.852;15.602;2023-06-14T19:56:00;9.63;;;7.82;;
30048;SDS011;16879;50.852;15.602;2023-06-14T19:58:26;12.20;;;7.68;;
30048;SDS011;16879;50.852;15.602;2023-06-14T20:00:53;11.80;;;9.15;;
30048;SDS011;16879;50.852;15.602;2023-06-14T20:03:21;8.73;;;7.45;;
30048;SDS011;16879;50.852;15.602;2023-06-14T20:11:26;8.02;;;6.90;;
30048;SDS011;16879;50.852;15.602;2023-06-14T20:14:37;7.53;;;6.47;;
30048;SDS011;16879;50.852;15.602;2023-06-14T20:20:15;7.93;;;7.05;;
30048;SDS011;16879;50.852;15.602;2023-06-14T20:22:42;8.57;;;7.03;;
30048;SDS011;16879;50.852;15.602;2023-06-14T20:25:08;7.22;;;6.53;;
30048;SDS011;16879;50.852;15.602;2023-06-14T20:27:35;8.48;;;7.53;;
30048;SDS011;16879;50.852;15.602;2023-06-14T20:30:01;8.52;;;7.63;;
30048;SDS011;16879;50.852;15.602;2023-06-14T20:32:28;8.00;;;7.13;;
30048;SDS011;16879;50.852;15.602;2023-06-14T20:34:55;8.15;;;7.18;;
30048;SDS011;16879;50.852;15.602;2023-06-14T20:37:22;7.07;;;6.22;;
30048;SDS011;16879;50.852;15.602;2023-06-14T20:39:50;8.43;;;7.45;;
30048;SDS011;16879;50.852;15.602;2023-06-14T20:42:16;12.85;;;7.75;;
30048;SDS011;16879;50.852;15.602;2023-06-14T20:44:42;9.23;;;7.45;;
30048;SDS011;16879;50.852;15.602;2023-06-14T20:47:08;7.80;;;7.00;;
30048;SDS011;16879;50.852;15.602;2023-06-14T20:49:40;7.30;;;6.55;;
30048;SDS011;16879;50.852;15.602;2023-06-14T20:52:08;8.20;;;6.03;;
30048;SDS011;16879;50.852;15.602;2023-06-14T20:54:37;8.20;;;7.40;;
30048;SDS011;16879;50.852;15.602;2023-06-14T20:57:06;7.93;;;7.10;;
30048;SDS011;16879;50.852;15.602;2023-06-14T20:59:37;8.10;;;7.20;;
30048;SDS011;16879;50.852;15.602;2023-06-14T21:02:05;8.38;;;7.00;;
30048;SDS011;16879;50.852;15.602;2023-06-14T21:04:40;9.32;;;7.38;;
30048;SDS011;16879;50.852;15.602;2023-06-14T21:07:06;8.68;;;7.55;;
30048;SDS011;16879;50.852;15.602;2023-06-14T21:09:34;9.35;;;8.00;;
30048;SDS011;16879;50.852;15.602;2023-06-14T21:12:00;8.95;;;7.85;;
30048;SDS011;16879;50.852;15.602;2023-06-14T21:14:26;10.48;;;9.10;;
30048;SDS011;16879;50.852;15.602;2023-06-14T21:16:53;8.80;;;7.75;;
30048;SDS011;16879;50.852;15.602;2023-06-14T21:19:20;7.80;;;7.00;;
30048;SDS011;16879;50.852;15.602;2023-06-14T21:21:46;8.60;;;7.70;;
30048;SDS011;16879;50.852;15.602;2023-06-14T21:24:18;8.45;;;7.55;;
30048;SDS011;16879;50.852;15.602;2023-06-14T21:26:45;10.00;;;6.55;;
30048;SDS011;16879;50.852;15.602;2023-06-14T21:29:32;8.50;;;6.75;;
30048;SDS011;16879;50.852;15.602;2023-06-14T21:31:58;9.15;;;7.05;;
30048;SDS011;16879;50.852;15.602;2023-06-14T21:34:24;8.23;;;6.80;;
30048;SDS011;16879;50.852;15.602;2023-06-14T21:36:52;7.97;;;6.90;;
30048;SDS011;16879;50.852;15.602;2023-06-14T21:39:21;13.82;;;7.20;;
30048;SDS011;16879;50.852;15.602;2023-06-14T21:45:25;8.20;;;7.32;;
30048;SDS011;16879;50.852;15.602;2023-06-14T22:46:29;11.15;;;6.95;;
30048;SDS011;16879;50.852;15.602;2023-06-14T22:49:23;8.98;;;6.13;;